Time;durP1;ratioP1;P1;durP2;ratioP2;P2;SDS_P1;SDS_P2;PMS_P1;PMS_P2;Temp;Humidity;BMP_temperature;BMP_pressure;BME280_temperature;BME280_humidity;BME280_pressure;Samples;Min_cycle;Max_cycle;Signal;HPM_P1;HPM_P2
2022/06/25 00:01:19;;;;;;;2.25;0.73;;;26.50;99.90;;;;;;4974154;28;20042;-51
2022/06/25 00:03:46;;;;;;;5.45;0.70;;;26.50;99.90;;;;;;4973927;28;20019;-51
2022/06/25 00:06:12;;;;;;;6.97;1.05;;;26.40;99.90;;;;;;4974050;28;20034;-51
2022/06/25 00:08:39;;;;;;;4.80;3.35;;;26.40;99.90;;;;;;4973829;28;20019;-49
2022/06/25 00:11:06;;;;;;;5.20;1.35;;;26.40;99.90;;;;;;4973773;28;20389;-49
2022/06/25 00:13:33;;;;;;;5.25;2.70;;;26.40;99.90;;;;;;4973741;28;20489;-49
2022/06/25 00:15:59;;;;;;;;;;;26.40;99.90;;;;;;4974009;28;20045;-50
2022/06/25 00:18:25;;;;;;;2.92;2.00;;;26.40;99.90;;;;;;4973686;28;19910;-50
2022/06/25 00:20:51;;;;;;;5.35;4.10;;;26.40;99.90;;;;;;4956301;28;20106;-50
2022/06/25 00:23:17;;;;;;;4.97;2.17;;;26.40;99.90;;;;;;4956407;28;20063;-50
2022/06/25 00:25:43;;;;;;;6.07;1.02;;;26.40;99.90;;;;;;4973666;28;20493;-50
2022/06/25 00:28:09;;;;;;;1.83;1.17;;;26.40;99.90;;;;;;4956067;28;20026;-50
2022/06/25 00:30:35;;;;;;;5.70;1.38;;;26.30;99.90;;;;;;4973515;28;20031;-50
2022/06/25 00:33:01;;;;;;;3.33;1.00;;;26.30;99.90;;;;;;4973238;28;20027;-50
2022/06/25 00:35:27;;;;;;;5.57;1.13;;;26.30;99.90;;;;;;4973227;28;20089;-51
2022/06/25 00:37:53;;;;;;;2.03;0.90;;;26.20;99.90;;;;;;4973282;28;20041;-51
2022/06/25 00:40:19;;;;;;;3.03;1.00;;;26.20;99.90;;;;;;4973197;28;20034;-51
2022/06/25 00:42:50;;;;;;;7.20;1.05;;;26.20;99.90;;;;;;4973362;28;20476;-51
2022/06/25 00:45:16;;;;;;;2.92;1.33;;;26.20;99.90;;;;;;4973196;28;20029;-51
2022/06/25 00:47:42;;;;;;;1.85;0.98;;;26.20;99.90;;;;;;4973157;28;20070;-49
2022/06/25 00:50:08;;;;;;;5.35;1.33;;;26.10;99.90;;;;;;4973043;28;20082;-50
2022/06/25 00:52:35;;;;;;;3.35;1.83;;;26.10;99.90;;;;;;4973090;28;20114;-49
2022/06/25 00:55:13;;;;;;;3.33;1.10;;;26.10;99.90;;;;;;4972934;28;20109;-49
2022/06/25 00:57:41;;;;;;;1.17;0.80;;;26.00;99.90;;;;;;4955385;28;20062;-49
2022/06/25 01:00:14;;;;;;;4.05;1.17;;;26.00;99.90;;;;;;4973008;28;20074;-50
2022/06/25 01:02:40;;;;;;;4.75;1.08;;;26.00;99.90;;;;;;4972765;28;20473;-49
2022/06/25 01:05:08;;;;;;;2.03;1.10;;;25.90;99.90;;;;;;4955356;28;20042;-49
2022/06/25 01:07:34;;;;;;;;;;;25.90;99.90;;;;;;4973107;28;20424;-49
2022/06/25 01:10:01;;;;;;;2.85;0.90;;;25.90;99.90;;;;;;4972603;28;20331;-49
2022/06/25 01:12:26;;;;;;;3.10;1.10;;;25.90;99.90;;;;;;4972738;28;20038;-49
2022/06/25 01:15:18;;;;;;;3.72;0.88;;;25.90;99.90;;;;;;4972666;28;20020;-50
2022/06/25 01:17:46;;;;;;;5.22;1.27;;;25.90;99.90;;;;;;4972549;28;20090;-50
2022/06/25 01:20:13;;;;;;;3.03;0.82;;;25.80;99.90;;;;;;4972576;28;20026;-50
2022/06/25 01:22:39;;;;;;;2.30;1.17;;;25.90;99.90;;;;;;4972664;28;20480;-50
2022/06/25 01:25:08;;;;;;;6.05;1.45;;;25.80;99.90;;;;;;4972588;28;20027;-50
2022/06/25 01:27:33;;;;;;;1.60;0.57;;;25.70;99.90;;;;;;4972615;28;20026;-50
2022/06/25 01:29:59;;;;;;;4.43;0.90;;;25.70;99.90;;;;;;4972487;28;20059;-49
2022/06/25 01:32:25;;;;;;;9.63;1.63;;;25.70;99.90;;;;;;4972342;28;20019;-48
2022/06/25 01:34:51;;;;;;;2.95;0.88;;;25.80;99.90;;;;;;4972486;28;20609;-49
2022/06/25 01:37:17;;;;;;;2.85;1.02;;;25.70;99.90;;;;;;4972453;28;20038;-48
2022/06/25 01:39:42;;;;;;;4.60;1.13;;;25.70;99.90;;;;;;4972245;28;20030;-49
2022/06/25 01:42:58;;;;;;;4.95;1.10;;;25.60;99.90;;;;;;4972285;28;20476;-48
2022/06/25 01:44:54;;;;;;;3.40;1.00;;;25.60;99.90;;;;;;4971664;28;20105;-48
2022/06/25 01:47:20;;;;;;;5.95;1.52;;;25.60;99.90;;;;;;4972372;28;20480;-48
2022/06/25 01:49:45;;;;;;;3.15;1.05;;;25.40;99.90;;;;;;4972115;28;20082;-49
2022/06/25 01:52:13;;;;;;;3.63;1.45;;;25.30;99.90;;;;;;4972073;28;20031;-50
2022/06/25 01:54:39;;;;;;;9.05;1.73;;;25.10;99.90;;;;;;4972541;28;20173;-49
2022/06/25 01:57:05;;;;;;;6.65;1.30;;;25.00;99.90;;;;;;4972289;28;20509;-49
2022/06/25 01:59:31;;;;;;;5.85;1.45;;;24.90;99.90;;;;;;4985917;23;21194;-56
2022/06/25 02:01:56;;;;;;;4.45;1.38;;;24.80;99.90;;;;;;4953005;29;20039;-57
2022/06/25 02:04:22;;;;;;;5.97;1.58;;;24.80;99.90;;;;;;4935718;29;20054;-59
2022/06/25 02:06:48;;;;;;;3.55;1.23;;;24.70;99.90;;;;;;4953228;29;20066;-60
2022/06/25 02:09:13;;;;;;;4.88;1.48;;;24.70;99.90;;;;;;4953189;29;20039;-59
2022/06/25 02:11:39;;;;;;;3.90;1.08;;;24.80;99.90;;;;;;4953353;28;20154;-59
2022/06/25 02:14:05;;;;;;;1.67;0.88;;;24.90;99.90;;;;;;4957062;29;20035;-59
2022/06/25 02:16:31;;;;;;;6.60;1.23;;;25.00;99.90;;;;;;4956563;29;20113;-60
2022/06/25 02:18:56;;;;;;;1.67;0.68;;;25.00;99.90;;;;;;4956731;29;20027;-58
2022/06/25 02:21:22;;;;;;;4.13;1.00;;;25.10;99.90;;;;;;4956714;29;20370;-57
2022/06/25 02:23:48;;;;;;;1.80;0.93;;;25.10;99.90;;;;;;4956627;29;20411;-57
2022/06/25 02:26:14;;;;;;;4.07;0.73;;;25.10;99.90;;;;;;4956476;29;20059;-57
2022/06/25 02:28:39;;;;;;;2.83;0.82;;;25.10;99.90;;;;;;4956700;29;20019;-57
2022/06/25 02:31:05;;;;;;;4.28;1.17;;;25.10;99.90;;;;;;4956700;29;20031;-57
2022/06/25 02:33:31;;;;;;;1.63;1.00;;;25.10;99.90;;;;;;4956386;29;20103;-58
2022/06/25 02:35:57;;;;;;;3.15;0.88;;;25.10;99.90;;;;;;4956611;29;20071;-58
2022/06/25 02:38:22;;;;;;;3.33;0.70;;;25.10;99.90;;;;;;4956472;29;20030;-58
2022/06/25 02:40:48;;;;;;;3.08;0.70;;;25.10;99.90;;;;;;4956433;29;20051;-57
2022/06/25 02:43:14;;;;;;;2.97;1.15;;;25.00;99.90;;;;;;4955169;29;20074;-57
2022/06/25 02:45:39;;;;;;;2.88;0.75;;;25.00;99.90;;;;;;4956075;29;20547;-58
2022/06/25 02:48:05;;;;;;;3.78;1.10;;;25.00;99.90;;;;;;4956281;29;20055;-57
2022/06/25 02:50:32;;;;;;;2.08;0.80;;;25.00;99.90;;;;;;4955959;29;20063;-57
2022/06/25 02:52:58;;;;;;;2.83;0.85;;;25.00;99.90;;;;;;4955897;29;20102;-58
2022/06/25 03:00:52;;;;;;;1.30;0.77;;;24.90;99.90;;;;;;4956504;29;20058;-58
2022/06/25 03:03:18;;;;;;;3.17;1.10;;;24.90;99.90;;;;;;4955852;29;20038;-58
2022/06/25 03:05:44;;;;;;;3.83;0.93;;;24.90;99.90;;;;;;4954374;29;20110;-58
2022/06/25 03:08:09;;;;;;;1.48;0.65;;;24.90;99.90;;;;;;4955757;29;20023;-60
2022/06/25 03:10:35;;;;;;;5.53;1.00;;;24.90;99.90;;;;;;4955707;29;20416;-59
2022/06/25 03:13:01;;;;;;;1.67;0.82;;;24.90;99.90;;;;;;4955536;29;20019;-58
2022/06/25 03:15:26;;;;;;;2.63;1.27;;;24.80;99.90;;;;;;4955602;29;20182;-58
2022/06/25 03:17:52;;;;;;;3.70;1.10;;;24.80;99.90;;;;;;4955766;29;20047;-58
2022/06/25 03:20:18;;;;;;;4.78;1.13;;;24.80;99.90;;;;;;4955316;29;20046;-58
2022/06/25 03:22:44;;;;;;;1.83;0.95;;;24.80;99.90;;;;;;4938243;29;20558;-58
2022/06/25 03:25:09;;;;;;;3.40;1.48;;;24.80;99.90;;;;;;4955406;29;20023;-58
2022/06/25 03:27:35;;;;;;;3.28;1.13;;;24.70;99.90;;;;;;4955175;29;20095;-58
2022/06/25 03:30:01;;;;;;;4.43;1.58;;;24.70;99.90;;;;;;4955361;29;20417;-59
2022/06/25 03:32:27;;;;;;;5.28;1.30;;;24.70;99.90;;;;;;4955124;29;20027;-58
2022/06/25 03:34:53;;;;;;;2.95;1.00;;;24.70;99.90;;;;;;4955396;29;20027;-57
2022/06/25 03:37:18;;;;;;;1.20;1.02;;;24.70;99.90;;;;;;4955124;29;20039;-58
2022/06/25 03:39:44;;;;;;;5.53;1.13;;;24.70;99.90;;;;;;4955160;29;20580;-58
2022/06/25 03:42:10;;;;;;;3.17;0.95;;;24.70;99.90;;;;;;4955057;29;20063;-58
2022/06/25 03:44:35;;;;;;;3.70;1.00;;;24.70;99.90;;;;;;4954897;29;20202;-58
2022/06/25 03:47:01;;;;;;;3.70;0.70;;;24.70;99.90;;;;;;4954842;29;20045;-58
2022/06/25 03:49:27;;;;;;;2.60;0.82;;;24.70;99.90;;;;;;4955024;29;20469;-58
2022/06/25 03:51:53;;;;;;;4.90;0.93;;;24.60;99.90;;;;;;4955020;29;20026;-59
2022/06/25 03:54:19;;;;;;;4.63;1.17;;;24.60;99.90;;;;;;4954724;29;20024;-58
2022/06/25 03:56:44;;;;;;;3.88;1.02;;;24.60;99.90;;;;;;4954740;29;20074;-58
2022/06/25 03:59:10;;;;;;;2.50;0.80;;;24.50;99.90;;;;;;4955380;29;20508;-58
2022/06/25 04:01:37;;;;;;;3.08;1.10;;;24.50;99.90;;;;;;4955314;29;20027;-58
2022/06/25 04:04:02;;;;;;;2.38;0.98;;;24.50;99.90;;;;;;4954709;29;20043;-58
2022/06/25 04:06:28;;;;;;;4.25;1.15;;;24.50;99.90;;;;;;4954642;29;20027;-58
2022/06/25 04:08:54;;;;;;;9.82;1.40;;;24.50;99.90;;;;;;4937433;29;20039;-58
2022/06/25 04:11:20;;;;;;;4.18;0.88;;;24.50;99.90;;;;;;4954746;29;20102;-58
2022/06/25 04:13:45;;;;;;;3.55;1.05;;;24.50;99.90;;;;;;4954263;29;20030;-58
2022/06/25 04:16:11;;;;;;;4.50;1.25;;;24.40;99.90;;;;;;4954332;29;20039;-58
2022/06/25 04:18:37;;;;;;;3.00;0.70;;;24.40;99.90;;;;;;4954388;29;20039;-59
2022/06/25 04:21:03;;;;;;;3.40;1.08;;;24.30;99.90;;;;;;4954223;29;20365;-58
2022/06/25 04:23:28;;;;;;;2.47;0.93;;;24.30;99.90;;;;;;4954472;29;20027;-58
2022/06/25 04:25:55;;;;;;;3.92;1.30;;;24.30;99.90;;;;;;4954370;29;20082;-58
2022/06/25 04:31:05;;;;;;;4.07;1.23;;;24.30;99.90;;;;;;4953991;29;20034;-58
2022/06/25 04:33:30;;;;;;;5.32;0.90;;;24.30;99.90;;;;;;4953963;29;20023;-58
2022/06/25 04:35:56;;;;;;;1.63;1.08;;;24.30;99.90;;;;;;4953681;28;20066;-59
2022/06/25 04:38:22;;;;;;;3.30;1.02;;;24.30;99.90;;;;;;4953929;29;20088;-59
2022/06/25 04:40:47;;;;;;;2.08;1.23;;;24.20;99.90;;;;;;4953906;29;20473;-59
2022/06/25 04:43:13;;;;;;;1.98;0.90;;;24.20;99.90;;;;;;4953754;29;20023;-59
2022/06/25 04:45:39;;;;;;;4.63;0.90;;;24.20;99.90;;;;;;4952605;29;20023;-59
2022/06/25 04:48:05;;;;;;;2.85;1.30;;;24.10;99.90;;;;;;4953852;29;20035;-58
2022/06/25 04:50:31;;;;;;;4.72;1.20;;;24.10;99.90;;;;;;4953774;29;20050;-59
2022/06/25 04:52:56;;;;;;;2.65;0.90;;;24.10;99.90;;;;;;4953768;29;20179;-59
2022/06/25 04:55:22;;;;;;;2.47;0.90;;;24.10;99.90;;;;;;4953538;29;20448;-59
2022/06/25 04:57:48;;;;;;;2.97;1.00;;;24.00;99.90;;;;;;4953676;29;20032;-59
2022/06/25 05:00:14;;;;;;;1.77;0.88;;;24.00;99.90;;;;;;4953518;28;20416;-59
2022/06/25 05:02:40;;;;;;;4.07;1.20;;;24.00;99.90;;;;;;4936500;29;20388;-59
2022/06/25 05:05:07;;;;;;;11.18;1.30;;;24.00;99.90;;;;;;4953464;29;20097;-57
2022/06/25 05:07:32;;;;;;;3.77;1.10;;;24.00;99.90;;;;;;4953384;29;20547;-60
2022/06/25 05:09:58;;;;;;;2.35;1.20;;;24.00;99.90;;;;;;4953771;29;20055;-59
2022/06/25 05:15:09;;;;;;;7.95;1.65;;;23.90;99.90;;;;;;4953487;29;20073;-60
2022/06/25 05:17:35;;;;;;;3.85;1.48;;;23.90;99.90;;;;;;4953389;29;20027;-60
2022/06/25 05:20:01;;;;;;;7.82;1.58;;;23.80;99.90;;;;;;4953481;29;20151;-59
2022/06/25 05:22:27;;;;;;;4.97;1.17;;;23.80;99.90;;;;;;4953344;29;20031;-58
2022/06/25 05:24:53;;;;;;;5.63;1.45;;;24.00;99.90;;;;;;4953521;29;20183;-59
2022/06/25 05:27:19;;;;;;;5.25;1.17;;;24.10;99.90;;;;;;4953403;29;20034;-58
2022/06/25 05:29:45;;;;;;;2.53;1.50;;;24.20;99.90;;;;;;4953389;29;20034;-58
2022/06/25 05:32:11;;;;;;;5.10;1.13;;;24.30;99.90;;;;;;4953484;29;20042;-58
2022/06/25 05:34:36;;;;;;;3.47;0.80;;;24.50;99.90;;;;;;4953454;29;20046;-58
2022/06/25 05:37:02;;;;;;;4.72;1.25;;;24.50;99.90;;;;;;4953307;29;20040;-58
2022/06/25 05:39:28;;;;;;;5.38;1.20;;;24.60;99.90;;;;;;4953377;29;20082;-58
2022/06/25 05:41:54;;;;;;;5.85;1.52;;;24.70;99.90;;;;;;4953195;29;20086;-59
2022/06/25 05:44:19;;;;;;;4.88;0.93;;;24.70;99.90;;;;;;4953172;29;20472;-60
2022/06/25 05:46:45;;;;;;;4.93;1.38;;;24.80;99.90;;;;;;4953924;28;20102;-58
2022/06/25 05:49:11;;;;;;;2.25;1.00;;;24.90;99.90;;;;;;4957668;29;20094;-58
2022/06/25 05:51:36;;;;;;;3.67;2.05;;;24.90;99.90;;;;;;4957244;29;20063;-59
2022/06/25 05:54:02;;;;;;;4.05;1.00;;;24.90;99.90;;;;;;4957551;29;20453;-58
2022/06/25 05:56:28;;;;;;;3.03;1.00;;;25.00;99.90;;;;;;4939766;29;20094;-58
2022/06/25 05:58:56;;;;;;;5.75;1.50;;;25.00;99.90;;;;;;4956987;29;20031;-58
2022/06/25 06:01:21;;;;;;;3.42;1.00;;;25.00;99.90;;;;;;4956841;29;20528;-58
2022/06/25 06:03:47;;;;;;;6.80;1.20;;;24.80;99.90;;;;;;4956932;29;20046;-58
2022/06/25 06:06:14;;;;;;;5.40;1.10;;;24.80;99.90;;;;;;4956888;29;20027;-58
2022/06/25 06:08:39;;;;;;;4.05;1.27;;;24.70;99.90;;;;;;4956832;29;20039;-57
2022/06/25 06:11:05;;;;;;;3.85;1.00;;;24.70;99.90;;;;;;4956737;29;20027;-57
2022/06/25 06:13:31;;;;;;;4.07;0.77;;;24.80;99.90;;;;;;4956865;29;20023;-56
2022/06/25 06:15:56;;;;;;;2.97;0.90;;;24.90;99.90;;;;;;4956766;29;20039;-56
2022/06/25 06:18:22;;;;;;;5.78;0.93;;;24.90;99.90;;;;;;4956640;29;20027;-56
2022/06/25 06:20:48;;;;;;;5.50;1.05;;;25.00;99.90;;;;;;4955273;29;20200;-59
2022/06/25 06:23:14;;;;;;;2.60;1.10;;;25.00;99.90;;;;;;4956507;29;20033;-59
2022/06/25 06:25:40;;;;;;;4.03;1.10;;;25.00;99.90;;;;;;4956599;29;20028;-59
2022/06/25 06:28:06;;;;;;;4.63;1.40;;;25.10;99.90;;;;;;4956564;29;20031;-57
2022/06/25 06:30:31;;;;;;;4.22;0.93;;;25.10;99.90;;;;;;4956728;29;20724;-57
2022/06/25 06:32:57;;;;;;;6.80;2.05;;;25.20;99.90;;;;;;4939268;29;20035;-58
2022/06/25 06:35:23;;;;;;;6.20;1.63;;;25.20;99.90;;;;;;4956228;29;20058;-57
2022/06/25 06:37:49;;;;;;;2.78;1.10;;;25.30;99.90;;;;;;4956245;29;20093;-56
2022/06/25 06:40:15;;;;;;;5.60;2.70;;;25.30;99.90;;;;;;4956261;29;20027;-57
2022/06/25 06:42:41;;;;;;;4.63;2.20;;;25.30;99.90;;;;;;4956023;29;20039;-58
2022/06/25 06:45:07;;;;;;;4.55;2.10;;;25.30;99.90;;;;;;4956127;29;20071;-58
2022/06/25 06:47:33;;;;;;;3.83;1.52;;;25.40;99.90;;;;;;4956119;29;20477;-58
2022/06/25 06:49:59;;;;;;;5.03;1.20;;;25.40;99.90;;;;;;4955932;29;20023;-58
2022/06/25 06:52:26;;;;;;;3.90;1.33;;;25.50;99.90;;;;;;4955816;29;20034;-58
2022/06/25 06:54:52;;;;;;;4.55;1.45;;;25.50;99.90;;;;;;4956112;29;20026;-58
2022/06/25 06:57:18;;;;;;;5.75;2.20;;;25.50;99.90;;;;;;4955532;28;20106;-58
2022/06/25 06:59:43;;;;;;;5.32;1.95;;;25.60;99.90;;;;;;4938496;29;20499;-57
2022/06/25 07:02:09;;;;;;;4.03;1.30;;;25.60;99.90;;;;;;4955783;29;20031;-58
2022/06/25 07:04:35;;;;;;;4.15;1.55;;;25.60;99.90;;;;;;4938801;29;20024;-59
2022/06/25 07:07:01;;;;;;;3.08;1.90;;;25.60;99.90;;;;;;4955811;29;20023;-60
2022/06/25 07:09:27;;;;;;;4.25;1.65;;;25.70;99.90;;;;;;4955827;29;20071;-57
2022/06/25 07:11:53;;;;;;;2.70;1.45;;;25.70;99.90;;;;;;4955674;29;20031;-57
2022/06/25 07:14:18;;;;;;;3.83;1.20;;;25.70;99.90;;;;;;4955503;29;20110;-58
2022/06/25 07:16:44;;;;;;;3.55;1.70;;;25.70;99.90;;;;;;4955458;29;20042;-57
2022/06/25 07:19:13;;;;;;;6.30;1.38;;;25.80;99.90;;;;;;4955455;29;20549;-57
2022/06/25 07:21:39;;;;;;;4.78;1.60;;;25.80;99.90;;;;;;4938357;29;20019;-56
2022/06/25 07:24:05;;;;;;;6.85;1.38;;;25.80;99.90;;;;;;4955527;29;20050;-56
2022/06/25 07:26:31;;;;;;;4.57;1.38;;;25.80;99.90;;;;;;4955344;29;20114;-56
2022/06/25 07:28:57;;;;;;;2.97;1.40;;;25.90;99.90;;;;;;4955042;29;20106;-57
2022/06/25 07:31:23;;;;;;;1.63;1.10;;;25.90;99.90;;;;;;4955343;29;20031;-57
2022/06/25 07:33:49;;;;;;;2.00;1.25;;;25.90;99.90;;;;;;4955224;29;20077;-57
2022/06/25 07:36:15;;;;;;;3.20;1.33;;;26.00;99.90;;;;;;4955221;29;20075;-58
2022/06/25 07:38:41;;;;;;;10.63;1.85;;;26.00;99.90;;;;;;4955227;29;20342;-57
2022/06/25 07:41:07;;;;;;;5.20;1.60;;;26.00;99.90;;;;;;4955277;29;20027;-58
2022/06/25 07:43:33;;;;;;;2.70;1.52;;;26.00;99.90;;;;;;4955013;29;20082;-57
2022/06/25 07:45:58;;;;;;;2.95;1.40;;;26.10;99.90;;;;;;4955053;29;20034;-57
2022/06/25 07:48:25;;;;;;;2.50;1.38;;;26.10;99.90;;;;;;4955058;29;20028;-58
2022/06/25 07:53:34;;;;;;;3.38;1.33;;;26.10;99.90;;;;;;4954953;29;20154;-58
2022/06/25 07:56:00;;;;;;;2.38;1.10;;;26.10;99.90;;;;;;4953524;29;20122;-58
2022/06/25 07:58:27;;;;;;;3.90;2.45;;;26.20;99.90;;;;;;4954755;29;20416;-58
2022/06/25 08:00:54;;;;;;;7.20;1.50;;;26.20;99.90;;;;;;4954603;29;20449;-58
2022/06/25 08:03:20;;;;;;;5.90;2.05;;;26.20;99.90;;;;;;4954659;29;20413;-58
2022/06/25 08:05:47;;;;;;;3.47;1.50;;;26.20;99.90;;;;;;4954661;29;20007;-57
2022/06/25 08:08:13;;;;;;;4.38;1.92;;;26.30;99.90;;;;;;4954603;29;20055;-57
2022/06/25 08:10:40;;;;;;;7.32;1.55;;;26.20;99.90;;;;;;4937098;29;20036;-58
2022/06/25 08:13:06;;;;;;;;;;;26.20;99.90;;;;;;4937889;29;20119;-58
2022/06/25 08:15:32;;;;;;;6.05;2.10;;;26.10;99.90;;;;;;4954384;29;20013;-58
2022/06/25 08:17:58;;;;;;;7.38;1.77;;;26.10;99.90;;;;;;4937040;29;20107;-58
2022/06/25 08:20:24;;;;;;;10.98;1.77;;;25.90;99.90;;;;;;4937024;29;20027;-57
2022/06/25 08:22:50;;;;;;;8.38;1.67;;;25.80;99.90;;;;;;4954426;29;20094;-58
2022/06/25 08:25:15;;;;;;;7.07;1.75;;;25.80;99.90;;;;;;4954580;29;20028;-58
2022/06/25 08:27:52;;;;;;;3.85;1.40;;;25.90;99.90;;;;;;4954509;29;20062;-58
2022/06/25 08:30:19;;;;;;;5.63;1.75;;;25.90;99.90;;;;;;4954166;29;20047;-58
2022/06/25 08:32:45;;;;;;;2.58;1.40;;;25.90;99.90;;;;;;4954107;29;20062;-58
2022/06/25 08:35:12;;;;;;;6.00;1.88;;;25.80;99.90;;;;;;4937044;29;20496;-58
2022/06/25 08:37:47;;;;;;;4.10;1.60;;;25.90;99.90;;;;;;4954432;29;20030;-58
2022/06/25 08:40:14;;;;;;;10.23;2.08;;;25.90;99.90;;;;;;4953023;29;20394;-60
2022/06/25 08:42:40;;;;;;;2.58;1.52;;;25.90;99.90;;;;;;4954228;29;20114;-60
2022/06/25 08:45:06;;;;;;;4.65;1.30;;;25.80;99.90;;;;;;4954276;29;20031;-60
2022/06/25 08:47:32;;;;;;;5.35;1.75;;;25.90;99.90;;;;;;4936755;29;20385;-59
2022/06/25 08:49:59;;;;;;;6.97;1.80;;;25.90;99.90;;;;;;4954057;29;20142;-60
2022/06/25 08:52:27;;;;;;;12.93;2.00;;;25.80;99.90;;;;;;4936750;29;20058;-60
2022/06/25 08:54:55;;;;;;;7.13;1.75;;;25.80;99.90;;;;;;4953722;29;20035;-60
2022/06/25 08:57:20;;;;;;;;;;;25.80;99.90;;;;;;4954089;29;20313;-60
2022/06/25 08:59:46;;;;;;;4.93;1.85;;;25.80;99.90;;;;;;4953760;28;20278;-60
2022/06/25 09:02:12;;;;;;;4.05;1.40;;;25.80;99.90;;;;;;4954219;29;20061;-60
2022/06/25 09:04:38;;;;;;;7.88;1.52;;;25.80;99.90;;;;;;4954497;29;20034;-60
2022/06/25 09:07:18;;;;;;;8.80;1.63;;;25.80;99.90;;;;;;4953962;29;20102;-60
2022/06/25 09:09:47;;;;;;;8.05;1.77;;;25.80;99.90;;;;;;4953717;29;20051;-61
2022/06/25 09:12:17;;;;;;;7.55;1.80;;;25.80;99.90;;;;;;4953652;29;20445;-61
2022/06/25 09:14:43;;;;;;;4.90;1.52;;;25.90;99.90;;;;;;4953266;29;20057;-61
2022/06/25 09:17:14;;;;;;;5.70;1.60;;;25.90;99.90;;;;;;4953175;29;20066;-61
2022/06/25 09:19:50;;;;;;;8.68;1.80;;;26.00;99.90;;;;;;4953250;29;20556;-59
2022/06/25 09:22:21;;;;;;;3.63;1.30;;;26.00;99.90;;;;;;4953319;28;20015;-58
2022/06/25 09:24:55;;;;;;;13.43;2.95;;;26.10;99.90;;;;;;4953286;29;20023;-59
2022/06/25 09:27:41;;;;;;;4.38;1.30;;;26.20;99.90;;;;;;4953302;29;20059;-59
2022/06/25 09:30:12;;;;;;;3.40;1.20;;;26.30;99.90;;;;;;4952866;29;20069;-59
2022/06/25 09:32:42;;;;;;;4.57;1.30;;;26.40;99.90;;;;;;4953023;29;20412;-59
2022/06/25 09:35:09;;;;;;;3.63;1.45;;;26.40;99.90;;;;;;4952895;29;20028;-60
2022/06/25 09:37:35;;;;;;;6.35;1.65;;;26.50;99.90;;;;;;4953046;29;20114;-60
2022/06/25 09:40:02;;;;;;;5.55;1.85;;;26.60;99.90;;;;;;4953251;29;20106;-59
2022/06/25 09:42:31;;;;;;;3.08;1.30;;;26.60;99.90;;;;;;4952755;29;20062;-59
2022/06/25 09:44:59;;;;;;;2.35;1.55;;;26.70;99.90;;;;;;4952961;29;20062;-59
2022/06/25 09:47:25;;;;;;;;;;;26.70;99.90;;;;;;4951968;29;20035;-60
2022/06/25 09:50:03;;;;;;;4.40;1.30;;;26.70;99.90;;;;;;4952844;29;20415;-59
2022/06/25 09:52:29;;;;;;;2.35;1.40;;;26.80;99.90;;;;;;4953178;29;20058;-59
2022/06/25 09:54:54;;;;;;;3.10;1.42;;;26.80;99.90;;;;;;4952693;29;20066;-59
2022/06/25 09:57:21;;;;;;;5.88;1.70;;;26.80;99.90;;;;;;4952561;29;20065;-58
2022/06/25 09:59:49;;;;;;;2.50;1.50;;;26.90;99.90;;;;;;4953386;28;20448;-59
2022/06/25 10:02:15;;;;;;;6.78;1.50;;;26.90;99.90;;;;;;4952753;29;20031;-59
2022/06/25 10:04:46;;;;;;;6.22;1.50;;;26.90;99.90;;;;;;4952818;29;20031;-59
2022/06/25 10:07:15;;;;;;;4.10;1.50;;;26.90;99.90;;;;;;4952785;29;20031;-59
2022/06/25 10:09:43;;;;;;;3.63;1.20;;;26.90;99.90;;;;;;4952700;29;20023;-59
2022/06/25 10:12:10;;;;;;;5.65;1.60;;;26.90;99.90;;;;;;4952631;29;20377;-58
2022/06/25 10:14:36;;;;;;;4.90;1.60;;;27.00;99.90;;;;;;4952894;29;20030;-59
2022/06/25 10:17:06;;;;;;;4.30;1.80;;;27.00;99.90;;;;;;4952890;29;20035;-58
2022/06/25 10:19:33;;;;;;;4.13;1.42;;;27.00;99.90;;;;;;4952920;29;20031;-59
2022/06/25 10:21:59;;;;;;;2.75;1.40;;;27.00;99.90;;;;;;4952689;29;20066;-59
2022/06/25 10:24:25;;;;;;;13.63;8.77;;;27.10;99.90;;;;;;4952536;29;20046;-59
2022/06/25 10:26:51;;;;;;;9.52;6.13;;;27.00;99.90;;;;;;4952582;29;20024;-59
2022/06/25 10:29:29;;;;;;;8.50;4.22;;;27.00;99.90;;;;;;4935408;29;20512;-59
2022/06/25 10:32:13;;;;;;;11.45;4.38;;;27.00;99.90;;;;;;4935547;28;20043;-59
2022/06/25 10:34:52;;;;;;;5.93;3.70;;;26.90;99.90;;;;;;4956075;29;20096;-60
2022/06/25 10:37:19;;;;;;;7.15;3.67;;;26.80;99.90;;;;;;4955950;29;20374;-59
2022/06/25 10:39:49;;;;;;;3.77;2.57;;;26.70;99.90;;;;;;4955966;29;20070;-59
2022/06/25 10:45:05;;;;;;;6.35;3.53;;;26.70;99.90;;;;;;4955689;29;20382;-59
2022/06/25 10:47:57;;;;;;;8.90;2.88;;;26.60;99.90;;;;;;4955989;29;20035;-59
2022/06/25 10:50:23;;;;;;;6.85;2.58;;;26.60;99.90;;;;;;4953210;29;20217;-59
2022/06/25 10:53:01;;;;;;;8.70;2.45;;;26.60;99.90;;;;;;4955776;29;20031;-59
2022/06/25 10:55:35;;;;;;;7.32;3.03;;;26.50;99.90;;;;;;4955908;29;20393;-59
2022/06/25 10:58:24;;;;;;;4.93;2.50;;;26.40;99.90;;;;;;4955807;29;20106;-59
2022/06/25 11:00:55;;;;;;;9.95;6.60;;;26.40;99.90;;;;;;4938316;29;20043;-59
2022/06/25 11:03:32;;;;;;;9.02;3.58;;;26.40;99.90;;;;;;4955671;29;20031;-60
2022/06/25 11:06:22;;;;;;;4.55;2.38;;;26.40;99.90;;;;;;4955842;29;20024;-59
2022/06/25 11:08:49;;;;;;;6.22;2.92;;;26.40;99.90;;;;;;4955624;29;20441;-59
2022/06/25 11:11:29;;;;;;;5.28;2.65;;;26.40;99.90;;;;;;4955520;29;20144;-59
2022/06/25 11:13:56;;;;;;;10.52;4.97;;;26.50;99.90;;;;;;4955489;29;20039;-59
2022/06/25 11:16:23;;;;;;;8.80;4.78;;;26.50;99.90;;;;;;4955447;29;20127;-59
2022/06/25 11:18:59;;;;;;;9.10;2.63;;;26.60;99.90;;;;;;4955627;29;20031;-58
2022/06/25 11:21:31;;;;;;;8.85;6.35;;;26.60;99.90;;;;;;4955390;29;20056;-59
2022/06/25 11:24:17;;;;;;;12.70;4.95;;;26.70;99.90;;;;;;4955305;29;20058;-58
2022/06/25 11:29:59;;;;;;;7.75;3.47;;;26.80;99.90;;;;;;4955557;29;20026;-59
2022/06/25 11:32:28;;;;;;;7.53;4.50;;;26.90;99.90;;;;;;4952191;29;20035;-59
2022/06/25 11:34:57;;;;;;;7.35;3.35;;;26.90;99.90;;;;;;4937962;29;20023;-59
2022/06/25 11:37:23;;;;;;;5.00;2.05;;;26.90;99.90;;;;;;4937848;29;20476;-58
2022/06/25 11:39:49;;;;;;;5.15;2.45;;;26.90;99.90;;;;;;4955042;29;20027;-59
2022/06/25 11:42:16;;;;;;;5.88;2.05;;;27.00;99.90;;;;;;4954902;29;20037;-58
2022/06/25 11:44:51;;;;;;;13.65;3.10;;;27.00;99.90;;;;;;4953725;28;20027;-58
2022/06/25 11:47:28;;;;;;;7.88;2.10;;;27.10;99.90;;;;;;4955008;29;20038;-58
2022/06/25 11:49:54;;;;;;;3.58;1.55;;;27.20;99.90;;;;;;4954777;29;20032;-59
2022/06/25 11:52:22;;;;;;;8.45;2.47;;;27.20;99.90;;;;;;4954803;29;20376;-58
2022/06/25 11:54:49;;;;;;;9.13;4.00;;;27.20;99.90;;;;;;4954794;29;20091;-58
2022/06/25 11:57:22;;;;;;;10.30;3.17;;;27.20;99.90;;;;;;4954642;29;20441;-59
2022/06/25 11:59:50;;;;;;;5.65;2.20;;;27.20;99.90;;;;;;4954593;29;20078;-59
2022/06/25 12:02:16;;;;;;;9.90;3.95;;;27.30;99.90;;;;;;4937480;29;20035;-60
2022/06/25 12:04:52;;;;;;;12.43;8.43;;;27.30;99.90;;;;;;4954625;29;20059;-59
2022/06/25 12:07:21;;;;;;;7.40;3.45;;;27.30;99.90;;;;;;4954404;29;20082;-59
2022/06/25 12:09:48;;;;;;;9.48;4.85;;;27.30;99.90;;;;;;4954308;29;20079;-59
2022/06/25 12:12:16;;;;;;;10.32;6.80;;;27.30;99.90;;;;;;4954530;29;20421;-58
2022/06/25 12:14:42;;;;;;;9.80;4.32;;;27.40;99.90;;;;;;4937702;29;20102;-60
2022/06/25 12:17:10;;;;;;;5.70;3.03;;;27.30;99.90;;;;;;4954501;29;20114;-59
2022/06/25 12:19:56;;;;;;;4.28;1.90;;;27.30;99.90;;;;;;4954829;29;20026;-59
2022/06/25 12:22:29;;;;;;;5.18;1.77;;;27.30;99.90;;;;;;4954034;29;20031;-59
2022/06/25 12:24:57;;;;;;;16.15;2.40;;;27.30;99.90;;;;;;4937078;29;20571;-59
2022/06/25 12:27:24;;;;;;;8.73;3.25;;;27.30;99.90;;;;;;4937156;29;20031;-61
2022/06/25 12:29:52;;;;;;;11.18;5.65;;;27.20;99.90;;;;;;4948100;28;20024;-59
2022/06/25 12:32:19;;;;;;;10.90;5.20;;;27.20;99.90;;;;;;4935801;29;20481;-60
2022/06/25 12:34:46;;;;;;;5.78;2.42;;;27.30;99.90;;;;;;4936802;29;20039;-62
2022/06/25 12:37:28;;;;;;;10.18;3.63;;;27.30;99.90;;;;;;4951684;29;20139;-62
2022/06/25 12:39:57;;;;;;;12.23;7.70;;;27.40;99.90;;;;;;4951095;29;20026;-62
2022/06/25 12:42:24;;;;;;;10.20;5.30;;;27.50;99.90;;;;;;4950318;28;20382;-63
2022/06/25 12:44:50;;;;;;;;;;;27.60;99.90;;;;;;4956031;28;20042;-60
2022/06/25 12:47:17;;;;;;;10.45;4.03;;;27.50;99.90;;;;;;4952827;28;19907;-61
2022/06/25 12:49:47;;;;;;;7.60;3.03;;;27.40;99.90;;;;;;4965124;28;20049;-61
2022/06/25 12:52:17;;;;;;;7.13;3.08;;;27.60;99.90;;;;;;4957671;28;20042;-61
2022/06/25 12:54:51;;;;;;;6.00;2.70;;;27.60;99.90;;;;;;4952789;28;20416;-57
2022/06/25 12:57:26;;;;;;;6.30;1.75;;;27.50;99.90;;;;;;4952371;28;20050;-62
2022/06/25 12:59:52;;;;;;;4.97;2.30;;;27.60;99.90;;;;;;4965047;28;20062;-58
2022/06/25 13:02:20;;;;;;;18.67;3.03;;;27.70;99.90;;;;;;4953500;28;20036;-58
2022/06/25 13:04:46;;;;;;;4.68;1.83;;;27.70;99.90;;;;;;4952193;28;20691;-59
2022/06/25 13:07:14;;;;;;;9.65;5.72;;;27.70;99.90;;;;;;4947701;28;20034;-61
2022/06/25 13:09:41;;;;;;;14.63;7.35;;;27.70;99.90;;;;;;4962448;28;20428;-63